Time;durP1;ratioP1;P1;durP2;ratioP2;P2;SDS_P1;SDS_P2;PMS_P1;PMS_P2;Temp;Humidity;BMP_temperature;BMP_pressure;BME280_temperature;BME280_humidity;BME280_pressure;Samples;Min_cycle;Max_cycle;Signal;HPM_P1;HPM_P2
2022/12/09 00:00:06;;;;;;;;;;;;;;;;;;351236;28;972;-81
2022/12/09 00:00:17;;;;;;;;;;;;;;;;;;350304;28;1477;-81
2022/12/09 00:00:27;;;;;;;;;;;;;;;;;;350586;28;1782;-81
2022/12/09 00:00:37;;;;;;;;;;;;;;;;;;351588;28;976;-81
2022/12/09 00:00:47;;;;;;;;;;;;;;;;;;351545;28;1625;-81
2022/12/09 00:01:05;;;;;;;;;;;;;;;;;;351564;28;1622;-81
2022/12/09 00:01:16;;;;;;;;;;;;;;;;;;351516;28;971;-80
2022/12/09 00:01:26;;;;;;;;;;;;;;;;;;351641;28;936;-81
2022/12/09 00:01:36;;;;;;;;;;;;;;;;;;351672;28;766;-81
2022/12/09 00:01:47;;;;;;;;;;;;;;;;;;351579;28;921;-81
2022/12/09 00:01:57;;;;;;;;;;;;;;;;;;351553;28;979;-80
2022/12/09 00:02:07;;;;;;;;;;;;;;;;;;351639;28;964;-81
2022/12/09 00:02:17;;;;;;;;;;;;;;;;;;351059;28;1594;-81
2022/12/09 00:02:28;;;;;;;;;;;;;;;;;;350691;28;1703;-81
2022/12/09 00:02:38;;;;;;;;;;;;;;;;;;351503;28;944;-81
2022/12/09 00:02:49;;;;;;;;;;;;;;;;;;351589;28;920;-81
2022/12/09 00:02:59;;;;;;;;;;;;;;;;;;351605;28;995;-80
2022/12/09 00:03:09;;;;;;;;;;;;;;;;;;351604;28;928;-81
2022/12/09 00:03:19;;;;;;;;;;;;;;;;;;351612;28;941;-81
2022/12/09 00:03:29;;;;;;;;;;;;;;;;;;351528;28;1969;-81
2022/12/09 00:03:40;;;;;;;;;;;;;;;;;;351553;28;957;-81
2022/12/09 00:03:50;;;;;;;;;;;;;;;;;;349919;28;1458;-81
2022/12/09 00:04:00;;;;;;;;;;;;;;;;;;350795;28;1704;-82
2022/12/09 00:04:11;;;;;;;;;;;;;;;;;;351611;28;928;-81
2022/12/09 00:04:21;;;;;;;;;;;;;;;;;;351534;28;1306;-81
2022/12/09 00:04:32;;;;;;;;;;;;;;;;;;351666;28;746;-81
2022/12/09 00:04:42;;;;;;;;;;;;;;;;;;351132;28;1827;-81
2022/12/09 00:04:52;;;;;;;;;;;;;;;;;;352967;28;916;-81
2022/12/09 00:05:02;;;;;;;;;;;;;;;;;;353066;28;758;-80
2022/12/09 00:05:13;;;;;;;;;;;;;;;;;;352958;28;1105;-81
2022/12/09 00:05:23;;;;;;;;;;;;;;;;;;352950;28;928;-81
2022/12/09 00:05:33;;;;;;;;;;;;;;;;;;353080;28;883;-81
2022/12/09 00:05:43;;;;;;;;;;;;;;;;;;353026;28;908;-81
2022/12/09 00:05:53;;;;;;;;;;;;;;;;;;352969;28;909;-81
2022/12/09 00:06:04;;;;;;;;;;;;;;;;;;353017;28;901;-81
2022/12/09 00:06:16;;;;;;;;;;;;;;;;;;352971;28;991;-81
2022/12/09 00:06:27;;;;;;;;;;;;;;;;;;353023;28;1035;-81
2022/12/09 00:06:38;;;;;;;;;;;;;;;;;;352958;28;928;-81
2022/12/09 00:06:48;;;;;;;;;;;;;;;;;;352967;28;919;-81
2022/12/09 00:06:58;;;;;;;;;;;;;;;;;;352966;28;909;-82
2022/12/09 00:07:08;;;;;;;;;;;;;;;;;;353013;28;986;-80
2022/12/09 00:07:18;;;;;;;;;;;;;;;;;;352967;28;943;-81
2022/12/09 00:07:29;;;;;;;;;;;;;;;;;;350634;28;1362;-81
2022/12/09 00:07:39;;;;;;;;;;;;;;;;;;350617;28;1537;-80
2022/12/09 00:07:49;;;;;;;;;;;;;;;;;;351596;28;805;-81
2022/12/09 00:07:59;;;;;;;;;;;;;;;;;;351505;28;904;-81
2022/12/09 00:08:09;;;;;;;;;;;;;;;;;;351602;28;825;-81
2022/12/09 00:08:20;;;;;;;;;;;;;;;;;;351593;28;909;-81
2022/12/09 00:08:30;;;;;;;;;;;;;;;;;;351600;28;971;-81
2022/12/09 00:08:40;;;;;;;;;;;;;;;;;;351611;28;836;-81
2022/12/09 00:08:51;;;;;;;;;;;;;;;;;;351569;28;841;-81
2022/12/09 00:09:02;;;;;;;;;;;;;;;;;;351649;28;856;-81
2022/12/09 00:09:14;;;;;;;;;;;;;;;;;;351630;28;975;-81
2022/12/09 00:09:24;;;;;;;;;;;;;;;;;;351562;28;936;-81
2022/12/09 00:09:34;;;;;;;;;;;;;;;;;;351593;28;912;-81
2022/12/09 00:09:44;;;;;;;;;;;;;;;;;;351598;28;1023;-81
2022/12/09 00:09:54;;;;;;;;;;;;;;;;;;350806;28;1410;-80
2022/12/09 00:10:05;;;;;;;;;;;;;;;;;;351535;28;937;-80
2022/12/09 00:10:15;;;;;;;;;;;;;;;;;;351637;28;916;-80
2022/12/09 00:10:25;;;;;;;;;;;;;;;;;;351594;28;972;-81
2022/12/09 00:10:36;;;;;;;;;;;;;;;;;;351573;28;975;-81
2022/12/09 00:10:46;;;;;;;;;;;;;;;;;;349590;28;1430;-80
2022/12/09 00:10:56;;;;;;;;;;;;;;;;;;351957;28;920;-81
2022/12/09 00:11:06;;;;;;;;;;;;;;;;;;351668;28;920;-81
2022/12/09 00:11:17;;;;;;;;;;;;;;;;;;351617;28;913;-81
2022/12/09 00:11:27;;;;;;;;;;;;;;;;;;351542;28;991;-81
2022/12/09 00:11:38;;;;;;;;;;;;;;;;;;351572;28;881;-80
2022/12/09 00:11:48;;;;;;;;;;;;;;;;;;351574;28;959;-80
2022/12/09 00:11:58;;;;;;;;;;;;;;;;;;351620;28;794;-81
2022/12/09 00:12:08;;;;;;;;;;;;;;;;;;351526;28;924;-80
2022/12/09 00:12:18;;;;;;;;;;;;;;;;;;351630;28;1007;-80
2022/12/09 00:12:29;;;;;;;;;;;;;;;;;;351604;28;758;-80
2022/12/09 00:12:39;;;;;;;;;;;;;;;;;;351558;28;964;-81
2022/12/09 00:12:52;;;;;;;;;;;;;;;;;;351550;28;975;-81
2022/12/09 00:13:02;;;;;;;;;;;;;;;;;;351515;28;788;-81
2022/12/09 00:13:12;;;;;;;;;;;;;;;;;;351629;28;785;-81
2022/12/09 00:13:23;;;;;;;;;;;;;;;;;;351571;28;964;-81
2022/12/09 00:13:33;;;;;;;;;;;;;;;;;;351525;28;933;-80
2022/12/09 00:13:47;;;;;;;;;;;;;;;;;;351598;28;940;-80
2022/12/09 00:13:59;;;;;;;;;;;;;;;;;;351598;28;940;-81
2022/12/09 00:14:10;;;;;;;;;;;;;;;;;;351499;28;1081;-80
2022/12/09 00:14:20;;;;;;;;;;;;;;;;;;351583;28;913;-81
2022/12/09 00:14:30;;;;;;;;;;;;;;;;;;351656;28;877;-81
2022/12/09 00:14:40;;;;;;;;;;;;;;;;;;351555;28;904;-80
2022/12/09 00:14:51;;;;;;;;;;;;;;;;;;351574;28;992;-80
2022/12/09 00:15:01;;;;;;;;;;;;;;;;;;351520;28;828;-80
2022/12/09 00:15:11;;;;;;;;;;;;;;;;;;351550;28;961;-80
2022/12/09 00:15:21;;;;;;;;;;;;;;;;;;351602;28;920;-81
2022/12/09 00:15:31;;;;;;;;;;;;;;;;;;351568;28;848;-81
2022/12/09 00:15:42;;;;;;;;;;;;;;;;;;350657;28;1435;-80
2022/12/09 00:15:52;;;;;;;;;;;;;;;;;;351544;28;925;-80
2022/12/09 00:16:06;;;;;;;;;;;;;;;;;;351573;28;901;-80
2022/12/09 00:16:16;;;;;;;;;;;;;;;;;;351541;28;936;-81
2022/12/09 00:16:27;;;;;;;;;;;;;;;;;;351536;28;1361;-81
2022/12/09 00:16:38;;;;;;;;;;;;;;;;;;351598;28;983;-80
2022/12/09 00:16:48;;;;;;;;;;;;;;;;;;351551;28;1011;-80
2022/12/09 00:16:58;;;;;;;;;;;;;;;;;;351499;28;1661;-81
2022/12/09 00:17:08;;;;;;;;;;;;;;;;;;349930;28;1679;-81
2022/12/09 00:17:18;;;;;;;;;;;;;;;;;;351134;28;1798;-80
2022/12/09 00:17:29;;;;;;;;;;;;;;;;;;351584;28;979;-80
2022/12/09 00:17:39;;;;;;;;;;;;;;;;;;351577;28;844;-80
2022/12/09 00:17:49;;;;;;;;;;;;;;;;;;351541;28;964;-80
2022/12/09 00:18:00;;;;;;;;;;;;;;;;;;351621;28;944;-80
2022/12/09 00:18:10;;;;;;;;;;;;;;;;;;351551;28;1098;-81
2022/12/09 00:18:20;;;;;;;;;;;;;;;;;;351552;28;808;-80
2022/12/09 00:18:30;;;;;;;;;;;;;;;;;;351575;28;876;-80
2022/12/09 00:18:40;;;;;;;;;;;;;;;;;;351589;28;932;-81
2022/12/09 00:18:51;;;;;;;;;;;;;;;;;;351454;28;1068;-80
2022/12/09 00:19:01;;;;;;;;;;;;;;;;;;351583;27;909;-81
2022/12/09 00:19:11;;;;;;;;;;;;;;;;;;351472;28;1136;-81
2022/12/09 00:19:21;;;;;;;;;;;;;;;;;;351567;28;979;-80
2022/12/09 00:19:33;;;;;;;;;;;;;;;;;;351572;28;975;-81
2022/12/09 00:19:43;;;;;;;;;;;;;;;;;;351577;28;912;-81
2022/12/09 00:19:53;;;;;;;;;;;;;;;;;;351576;28;900;-81
2022/12/09 00:20:04;;;;;;;;;;;;;;;;;;351630;28;920;-80
2022/12/09 00:20:14;;;;;;;;;;;;;;;;;;351509;27;936;-80
2022/12/09 00:20:24;;;;;;;;;;;;;;;;;;351546;28;928;-80
2022/12/09 00:20:34;;;;;;;;;;;;;;;;;;350752;28;1512;-81
2022/12/09 00:20:45;;;;;;;;;;;;;;;;;;349987;28;1567;-80
2022/12/09 00:20:55;;;;;;;;;;;;;;;;;;349952;28;1701;-81
2022/12/09 00:21:25;;;;;;;;;;;;;;;;;;352916;28;853;-80
2022/12/09 00:21:35;;;;;;;;;;;;;;;;;;350119;28;1024;-81
2022/12/09 00:21:45;;;;;;;;;;;;;;;;;;350190;28;987;-80
2022/12/09 00:21:55;;;;;;;;;;;;;;;;;;350187;28;885;-80
2022/12/09 00:22:06;;;;;;;;;;;;;;;;;;350144;28;933;-80
2022/12/09 00:22:16;;;;;;;;;;;;;;;;;;350159;28;909;-80
2022/12/09 00:22:26;;;;;;;;;;;;;;;;;;350215;28;921;-81
2022/12/09 00:22:37;;;;;;;;;;;;;;;;;;349632;28;1478;-81
2022/12/09 00:22:47;;;;;;;;;;;;;;;;;;351584;28;1027;-81
2022/12/09 00:22:57;;;;;;;;;;;;;;;;;;351628;28;858;-80
2022/12/09 00:23:07;;;;;;;;;;;;;;;;;;351509;28;932;-81
2022/12/09 00:23:17;;;;;;;;;;;;;;;;;;351534;28;936;-81
2022/12/09 00:23:27;;;;;;;;;;;;;;;;;;351503;28;944;-80
2022/12/09 00:23:38;;;;;;;;;;;;;;;;;;351495;28;1957;-81
2022/12/09 00:23:48;;;;;;;;;;;;;;;;;;351560;28;936;-81
2022/12/09 00:24:01;;;;;;;;;;;;;;;;;;351525;28;940;-80
2022/12/09 00:24:12;;;;;;;;;;;;;;;;;;351547;28;913;-81
2022/12/09 00:24:22;;;;;;;;;;;;;;;;;;351589;28;929;-80
2022/12/09 00:24:32;;;;;;;;;;;;;;;;;;351596;28;846;-81
2022/12/09 00:24:42;;;;;;;;;;;;;;;;;;351594;28;992;-80
2022/12/09 00:24:53;;;;;;;;;;;;;;;;;;351533;28;929;-80
2022/12/09 00:25:03;;;;;;;;;;;;;;;;;;351548;28;1050;-81
2022/12/09 00:25:13;;;;;;;;;;;;;;;;;;351491;28;991;-81
2022/12/09 00:25:23;;;;;;;;;;;;;;;;;;351521;28;873;-81
2022/12/09 00:25:33;;;;;;;;;;;;;;;;;;351575;28;955;-80
2022/12/09 00:25:44;;;;;;;;;;;;;;;;;;351571;28;916;-81
2022/12/09 00:25:55;;;;;;;;;;;;;;;;;;350249;28;1462;-81
2022/12/09 00:26:06;;;;;;;;;;;;;;;;;;351442;28;1608;-81
2022/12/09 00:26:16;;;;;;;;;;;;;;;;;;351498;28;933;-80
2022/12/09 00:26:27;;;;;;;;;;;;;;;;;;351191;28;1909;-81
2022/12/09 00:26:38;;;;;;;;;;;;;;;;;;352914;28;896;-81
2022/12/09 00:26:48;;;;;;;;;;;;;;;;;;352992;28;964;-80
2022/12/09 00:26:59;;;;;;;;;;;;;;;;;;352993;28;983;-81
2022/12/09 00:27:09;;;;;;;;;;;;;;;;;;352949;28;1296;-81
2022/12/09 00:27:19;;;;;;;;;;;;;;;;;;352948;28;980;-80
2022/12/09 00:27:29;;;;;;;;;;;;;;;;;;352924;28;1014;-81
2022/12/09 00:27:39;;;;;;;;;;;;;;;;;;352916;28;956;-81
2022/12/09 00:27:50;;;;;;;;;;;;;;;;;;353008;28;861;-81
2022/12/09 00:28:00;;;;;;;;;;;;;;;;;;351588;28;1450;-80
2022/12/09 00:28:10;;;;;;;;;;;;;;;;;;350049;28;1000;-81
2022/12/09 00:28:20;;;;;;;;;;;;;;;;;;349998;28;1396;-80
2022/12/09 00:28:30;;;;;;;;;;;;;;;;;;349928;28;1555;-81
2022/12/09 00:28:41;;;;;;;;;;;;;;;;;;350221;28;924;-81
2022/12/09 00:28:51;;;;;;;;;;;;;;;;;;350219;28;861;-81
2022/12/09 00:29:02;;;;;;;;;;;;;;;;;;350185;28;964;-80
2022/12/09 00:29:12;;;;;;;;;;;;;;;;;;350133;28;933;-80
2022/12/09 00:29:22;;;;;;;;;;;;;;;;;;350148;28;988;-80
2022/12/09 00:29:33;;;;;;;;;;;;;;;;;;350185;28;889;-81
2022/12/09 00:29:43;;;;;;;;;;;;;;;;;;350099;28;1003;-81
2022/12/09 00:29:53;;;;;;;;;;;;;;;;;;350194;28;794;-81
2022/12/09 00:30:04;;;;;;;;;;;;;;;;;;349797;28;1420;-80
2022/12/09 00:30:14;;;;;;;;;;;;;;;;;;350707;28;1463;-81
2022/12/09 00:30:24;;;;;;;;;;;;;;;;;;350073;28;1747;-81
2022/12/09 00:30:34;;;;;;;;;;;;;;;;;;350149;28;1003;-81
2022/12/09 00:30:45;;;;;;;;;;;;;;;;;;350149;28;998;-81
2022/12/09 00:30:59;;;;;;;;;;;;;;;;;;350329;28;1934;-81
2022/12/09 00:31:11;;;;;;;;;;;;;;;;;;352919;28;972;-81
2022/12/09 00:31:24;;;;;;;;;;;;;;;;;;352978;28;908;-81
2022/12/09 00:31:35;;;;;;;;;;;;;;;;;;352936;28;979;-81
2022/12/09 00:31:45;;;;;;;;;;;;;;;;;;352895;28;973;-81
2022/12/09 00:31:56;;;;;;;;;;;;;;;;;;352933;28;1082;-81
2022/12/09 00:32:06;;;;;;;;;;;;;;;;;;352995;28;921;-81
2022/12/09 00:32:16;;;;;;;;;;;;;;;;;;353014;28;948;-81
2022/12/09 00:32:26;;;;;;;;;;;;;;;;;;352891;28;912;-81
2022/12/09 00:32:36;;;;;;;;;;;;;;;;;;353069;28;867;-81
2022/12/09 00:32:47;;;;;;;;;;;;;;;;;;352994;28;987;-81
2022/12/09 00:32:57;;;;;;;;;;;;;;;;;;352933;28;1055;-81
2022/12/09 00:33:07;;;;;;;;;;;;;;;;;;353031;28;682;-81
2022/12/09 00:33:18;;;;;;;;;;;;;;;;;;352980;28;940;-81
2022/12/09 00:33:29;;;;;;;;;;;;;;;;;;352876;28;913;-81
2022/12/09 00:33:39;;;;;;;;;;;;;;;;;;352957;28;944;-81
2022/12/09 00:33:50;;;;;;;;;;;;;;;;;;352921;28;967;-81
2022/12/09 00:34:02;;;;;;;;;;;;;;;;;;352907;28;916;-81
2022/12/09 00:34:13;;;;;;;;;;;;;;;;;;352972;28;952;-81
2022/12/09 00:34:23;;;;;;;;;;;;;;;;;;352927;28;829;-81
2022/12/09 00:34:33;;;;;;;;;;;;;;;;;;352957;28;782;-81
2022/12/09 00:34:44;;;;;;;;;;;;;;;;;;352966;28;904;-81
2022/12/09 00:34:54;;;;;;;;;;;;;;;;;;352959;28;925;-81
2022/12/09 00:35:04;;;;;;;;;;;;;;;;;;351362;28;1449;-81
2022/12/09 00:35:14;;;;;;;;;;;;;;;;;;351509;28;837;-81
2022/12/09 00:35:25;;;;;;;;;;;;;;;;;;351546;28;1003;-81
2022/12/09 00:35:35;;;;;;;;;;;;;;;;;;351614;28;734;-82
2022/12/09 00:35:45;;;;;;;;;;;;;;;;;;351590;28;908;-82
2022/12/09 00:36:01;;;;;;;;;;;;;;;;;;351477;28;952;-82
2022/12/09 00:36:13;;;;;;;;;;;;;;;;;;351590;28;850;-81
2022/12/09 00:36:24;;;;;;;;;;;;;;;;;;351625;28;830;-81
2022/12/09 00:36:34;;;;;;;;;;;;;;;;;;351491;28;1153;-81
2022/12/09 00:36:44;;;;;;;;;;;;;;;;;;351582;28;960;-81
2022/12/09 00:36:54;;;;;;;;;;;;;;;;;;351606;28;849;-81
2022/12/09 00:37:04;;;;;;;;;;;;;;;;;;351581;28;841;-81
2022/12/09 00:37:15;;;;;;;;;;;;;;;;;;351507;28;924;-80
2022/12/09 00:37:25;;;;;;;;;;;;;;;;;;351612;28;786;-81
2022/12/09 00:37:35;;;;;;;;;;;;;;;;;;351550;28;912;-81
2022/12/09 00:37:45;;;;;;;;;;;;;;;;;;351556;28;968;-81
2022/12/09 00:37:56;;;;;;;;;;;;;;;;;;351493;28;968;-81
2022/12/09 00:38:06;;;;;;;;;;;;;;;;;;351537;28;955;-82
2022/12/09 00:38:16;;;;;;;;;;;;;;;;;;351585;28;853;-81
2022/12/09 00:38:26;;;;;;;;;;;;;;;;;;351578;28;916;-81
2022/12/09 00:38:36;;;;;;;;;;;;;;;;;;351524;28;825;-81
2022/12/09 00:38:47;;;;;;;;;;;;;;;;;;351562;28;980;-81
2022/12/09 00:38:58;;;;;;;;;;;;;;;;;;351624;28;984;-81
2022/12/09 00:39:08;;;;;;;;;;;;;;;;;;351569;28;940;-81
2022/12/09 00:39:19;;;;;;;;;;;;;;;;;;351629;28;1673;-82
2022/12/09 00:39:29;;;;;;;;;;;;;;;;;;351502;28;971;-81
2022/12/09 00:39:39;;;;;;;;;;;;;;;;;;351339;28;1375;-81
2022/12/09 00:39:49;;;;;;;;;;;;;;;;;;350809;28;1356;-81
2022/12/09 00:40:00;;;;;;;;;;;;;;;;;;351506;28;964;-81
2022/12/09 00:40:10;;;;;;;;;;;;;;;;;;351538;28;865;-81
2022/12/09 00:40:20;;;;;;;;;;;;;;;;;;351526;28;916;-82
2022/12/09 00:40:31;;;;;;;;;;;;;;;;;;351500;28;991;-81
2022/12/09 00:40:41;;;;;;;;;;;;;;;;;;351591;28;952;-81
2022/12/09 00:40:51;;;;;;;;;;;;;;;;;;351577;28;912;-81
2022/12/09 00:41:02;;;;;;;;;;;;;;;;;;351721;28;2004;-81
2022/12/09 00:41:12;;;;;;;;;;;;;;;;;;352964;28;814;-81
2022/12/09 00:41:23;;;;;;;;;;;;;;;;;;352968;28;928;-81
2022/12/09 00:41:33;;;;;;;;;;;;;;;;;;352923;28;1007;-81
2022/12/09 00:41:43;;;;;;;;;;;;;;;;;;352994;28;849;-81
2022/12/09 00:41:53;;;;;;;;;;;;;;;;;;352945;28;917;-81
2022/12/09 00:42:03;;;;;;;;;;;;;;;;;;352883;28;1063;-81
2022/12/09 00:42:14;;;;;;;;;;;;;;;;;;352934;28;928;-81
2022/12/09 00:42:24;;;;;;;;;;;;;;;;;;352957;28;983;-81
2022/12/09 00:42:34;;;;;;;;;;;;;;;;;;352924;28;979;-81
2022/12/09 00:42:44;;;;;;;;;;;;;;;;;;352818;28;1299;-81
2022/12/09 00:42:55;;;;;;;;;;;;;;;;;;349701;28;1512;-81
2022/12/09 00:43:05;;;;;;;;;;;;;;;;;;350144;28;1113;-81
2022/12/09 00:43:15;;;;;;;;;;;;;;;;;;350169;28;917;-81
2022/12/09 00:43:25;;;;;;;;;;;;;;;;;;350155;28;957;-81
2022/12/09 00:43:35;;;;;;;;;;;;;;;;;;350075;28;1969;-82
2022/12/09 00:43:47;;;;;;;;;;;;;;;;;;350181;28;886;-81
2022/12/09 00:43:57;;;;;;;;;;;;;;;;;;350142;28;913;-82
2022/12/09 00:44:08;;;;;;;;;;;;;;;;;;350145;28;968;-81
2022/12/09 00:44:18;;;;;;;;;;;;;;;;;;350126;28;905;-82
2022/12/09 00:44:29;;;;;;;;;;;;;;;;;;350104;28;1174;-81
2022/12/09 00:44:39;;;;;;;;;;;;;;;;;;350091;28;1011;-81
2022/12/09 00:44:49;;;;;;;;;;;;;;;;;;349258;28;1486;-81
2022/12/09 00:44:59;;;;;;;;;;;;;;;;;;351640;28;1570;-81
2022/12/09 00:45:09;;;;;;;;;;;;;;;;;;351812;28;1800;-81
2022/12/09 00:45:19;;;;;;;;;;;;;;;;;;350257;28;1746;-81
2022/12/09 00:45:30;;;;;;;;;;;;;;;;;;350147;28;964;-82
2022/12/09 00:45:40;;;;;;;;;;;;;;;;;;350151;28;877;-81
2022/12/09 00:45:50;;;;;;;;;;;;;;;;;;350080;28;929;-81
2022/12/09 00:46:00;;;;;;;;;;;;;;;;;;350203;28;952;-81
2022/12/09 00:46:11;;;;;;;;;;;;;;;;;;350109;28;983;-81
2022/12/09 00:46:21;;;;;;;;;;;;;;;;;;349418;28;1291;-81
2022/12/09 00:46:31;;;;;;;;;;;;;;;;;;350072;28;1007;-81
2022/12/09 00:46:42;;;;;;;;;;;;;;;;;;350112;28;984;-81
2022/12/09 00:46:52;;;;;;;;;;;;;;;;;;350127;28;1031;-82
2022/12/09 00:47:02;;;;;;;;;;;;;;;;;;350167;28;775;-81
2022/12/09 00:47:12;;;;;;;;;;;;;;;;;;350140;28;980;-81
2022/12/09 00:47:23;;;;;;;;;;;;;;;;;;350139;28;988;-81
2022/12/09 00:47:33;;;;;;;;;;;;;;;;;;350156;28;983;-81
2022/12/09 00:47:43;;;;;;;;;;;;;;;;;;350143;28;976;-81
2022/12/09 00:47:53;;;;;;;;;;;;;;;;;;350094;28;957;-81
2022/12/09 00:48:04;;;;;;;;;;;;;;;;;;350188;28;798;-81
2022/12/09 00:48:14;;;;;;;;;;;;;;;;;;350143;28;873;-82
2022/12/09 00:48:24;;;;;;;;;;;;;;;;;;350134;28;900;-81
2022/12/09 00:48:37;;;;;;;;;;;;;;;;;;350113;28;1170;-81
2022/12/09 00:48:47;;;;;;;;;;;;;;;;;;350112;28;908;-81
2022/12/09 00:48:57;;;;;;;;;;;;;;;;;;350116;28;1019;-81
2022/12/09 00:49:08;;;;;;;;;;;;;;;;;;350086;28;917;-82
2022/12/09 00:49:19;;;;;;;;;;;;;;;;;;350072;28;1252;-81
2022/12/09 00:49:29;;;;;;;;;;;;;;;;;;350063;28;960;-81
2022/12/09 00:49:39;;;;;;;;;;;;;;;;;;349960;28;1499;-82
2022/12/09 00:49:49;;;;;;;;;;;;;;;;;;350532;28;1414;-81
2022/12/09 00:49:59;;;;;;;;;;;;;;;;;;351486;28;995;-82
2022/12/09 00:50:10;;;;;;;;;;;;;;;;;;351437;28;991;-82
2022/12/09 00:50:20;;;;;;;;;;;;;;;;;;351436;28;900;-81
2022/12/09 00:50:30;;;;;;;;;;;;;;;;;;351371;28;814;-81
2022/12/09 00:50:40;;;;;;;;;;;;;;;;;;349925;28;1511;-80
2022/12/09 00:50:50;;;;;;;;;;;;;;;;;;350576;28;1682;-81
2022/12/09 00:51:01;;;;;;;;;;;;;;;;;;350542;28;1585;-81
2022/12/09 00:51:18;;;;;;;;;;;;;;;;;;351285;28;1241;-81
2022/12/09 00:51:29;;;;;;;;;;;;;;;;;;351507;28;1094;-82
2022/12/09 00:51:39;;;;;;;;;;;;;;;;;;351527;28;916;-81
2022/12/09 00:51:49;;;;;;;;;;;;;;;;;;351481;28;944;-81
2022/12/09 00:51:59;;;;;;;;;;;;;;;;;;351572;28;991;-81
2022/12/09 00:52:09;;;;;;;;;;;;;;;;;;351534;28;1015;-81
2022/12/09 00:52:20;;;;;;;;;;;;;;;;;;351554;28;987;-81
2022/12/09 00:52:30;;;;;;;;;;;;;;;;;;351454;28;1008;-81
2022/12/09 00:52:40;;;;;;;;;;;;;;;;;;351440;28;979;-81
2022/12/09 00:52:50;;;;;;;;;;;;;;;;;;351491;28;984;-81
2022/12/09 00:53:00;;;;;;;;;;;;;;;;;;351555;28;813;-81
2022/12/09 00:53:11;;;;;;;;;;;;;;;;;;351526;28;975;-81
2022/12/09 00:53:21;;;;;;;;;;;;;;;;;;351538;28;980;-81
2022/12/09 00:53:32;;;;;;;;;;;;;;;;;;351523;28;960;-81
2022/12/09 00:53:42;;;;;;;;;;;;;;;;;;351547;28;1004;-81
2022/12/09 00:53:54;;;;;;;;;;;;;;;;;;351489;28;1003;-81
2022/12/09 00:54:04;;;;;;;;;;;;;;;;;;351587;28;798;-81
2022/12/09 00:54:14;;;;;;;;;;;;;;;;;;351517;28;774;-81
2022/12/09 00:54:24;;;;;;;;;;;;;;;;;;351992;28;1284;-81
2022/12/09 00:54:35;;;;;;;;;;;;;;;;;;352915;28;912;-81
2022/12/09 00:54:45;;;;;;;;;;;;;;;;;;352963;27;896;-81
2022/12/09 00:54:55;;;;;;;;;;;;;;;;;;352921;28;928;-81
2022/12/09 00:55:06;;;;;;;;;;;;;;;;;;352981;28;917;-81
2022/12/09 00:55:16;;;;;;;;;;;;;;;;;;352929;28;931;-81
2022/12/09 00:55:26;;;;;;;;;;;;;;;;;;352950;27;917;-81
2022/12/09 00:55:36;;;;;;;;;;;;;;;;;;352955;28;916;-81
2022/12/09 00:55:47;;;;;;;;;;;;;;;;;;350984;28;1439;-80
2022/12/09 00:55:57;;;;;;;;;;;;;;;;;;351518;28;836;-81
2022/12/09 00:56:07;;;;;;;;;;;;;;;;;;351521;28;913;-81
2022/12/09 00:56:17;;;;;;;;;;;;;;;;;;351520;28;997;-81
2022/12/09 00:56:28;;;;;;;;;;;;;;;;;;351526;28;921;-82
2022/12/09 00:56:39;;;;;;;;;;;;;;;;;;351480;28;1023;-81
2022/12/09 00:56:49;;;;;;;;;;;;;;;;;;351479;28;828;-81
2022/12/09 00:56:59;;;;;;;;;;;;;;;;;;351496;28;960;-81
2022/12/09 00:57:09;;;;;;;;;;;;;;;;;;351535;28;908;-81
2022/12/09 00:57:19;;;;;;;;;;;;;;;;;;351531;28;791;-81
2022/12/09 00:57:30;;;;;;;;;;;;;;;;;;351542;28;983;-81
2022/12/09 00:57:40;;;;;;;;;;;;;;;;;;351571;28;851;-81
2022/12/09 00:57:50;;;;;;;;;;;;;;;;;;351516;28;892;-81
2022/12/09 00:58:00;;;;;;;;;;;;;;;;;;351536;28;796;-82
2022/12/09 00:58:11;;;;;;;;;;;;;;;;;;351561;28;900;-82
2022/12/09 00:58:22;;;;;;;;;;;;;;;;;;351492;28;1003;-81
2022/12/09 00:58:32;;;;;;;;;;;;;;;;;;351545;28;905;-81
2022/12/09 00:58:42;;;;;;;;;;;;;;;;;;351549;28;961;-81
2022/12/09 00:58:53;;;;;;;;;;;;;;;;;;351476;28;943;-81
2022/12/09 00:59:03;;;;;;;;;;;;;;;;;;351578;28;842;-81
2022/12/09 00:59:13;;;;;;;;;;;;;;;;;;351501;28;901;-81
2022/12/09 00:59:23;;;;;;;;;;;;;;;;;;351450;28;2016;-81
2022/12/09 00:59:34;;;;;;;;;;;;;;;;;;352950;28;991;-81
2022/12/09 00:59:44;;;;;;;;;;;;;;;;;;352645;28;1649;-81
2022/12/09 00:59:54;;;;;;;;;;;;;;;;;;349987;28;1735;-81
2022/12/09 01:00:05;;;;;;;;;;;;;;;;;;351194;28;1791;-81
2022/12/09 01:00:15;;;;;;;;;;;;;;;;;;350483;28;1355;-81
2022/12/09 01:00:25;;;;;;;;;;;;;;;;;;351534;28;999;-82
2022/12/09 01:00:36;;;;;;;;;;;;;;;;;;351553;28;913;-81
2022/12/09 01:00:46;;;;;;;;;;;;;;;;;;351550;28;1003;-81
2022/12/09 01:00:56;;;;;;;;;;;;;;;;;;351402;28;964;-81
2022/12/09 01:01:06;;;;;;;;;;;;;;;;;;351600;28;813;-82
2022/12/09 01:01:17;;;;;;;;;;;;;;;;;;351480;28;1006;-81
2022/12/09 01:01:27;;;;;;;;;;;;;;;;;;351545;28;909;-82
2022/12/09 01:01:37;;;;;;;;;;;;;;;;;;351567;28;1089;-81
2022/12/09 01:01:47;;;;;;;;;;;;;;;;;;351509;28;960;-81
2022/12/09 01:01:58;;;;;;;;;;;;;;;;;;351521;28;841;-81
2022/12/09 01:02:08;;;;;;;;;;;;;;;;;;350539;28;1870;-82
2022/12/09 01:02:18;;;;;;;;;;;;;;;;;;352983;28;811;-81
2022/12/09 01:02:28;;;;;;;;;;;;;;;;;;352949;28;904;-81
2022/12/09 01:02:39;;;;;;;;;;;;;;;;;;352904;28;821;-81
2022/12/09 01:02:49;;;;;;;;;;;;;;;;;;352950;28;956;-81
2022/12/09 01:02:59;;;;;;;;;;;;;;;;;;352879;28;900;-81
2022/12/09 01:03:11;;;;;;;;;;;;;;;;;;352924;28;968;-81
2022/12/09 01:03:21;;;;;;;;;;;;;;;;;;352967;28;876;-81
2022/12/09 01:03:31;;;;;;;;;;;;;;;;;;352822;28;1894;-81
2022/12/09 01:03:42;;;;;;;;;;;;;;;;;;352926;28;987;-81
2022/12/09 01:03:52;;;;;;;;;;;;;;;;;;352894;28;1035;-81
2022/12/09 01:04:06;;;;;;;;;;;;;;;;;;352876;28;929;-81
2022/12/09 01:04:17;;;;;;;;;;;;;;;;;;351437;28;1110;-81
2022/12/09 01:04:27;;;;;;;;;;;;;;;;;;351536;28;968;-81
2022/12/09 01:04:37;;;;;;;;;;;;;;;;;;351495;28;937;-81
2022/12/09 01:04:51;;;;;;;;;;;;;;;;;;351509;28;826;-81
2022/12/09 01:05:02;;;;;;;;;;;;;;;;;;351462;28;952;-81
2022/12/09 01:05:12;;;;;;;;;;;;;;;;;;350085;28;1427;-81
2022/12/09 01:05:22;;;;;;;;;;;;;;;;;;349668;28;1490;-81
2022/12/09 01:05:35;;;;;;;;;;;;;;;;;;350150;28;901;-82
2022/12/09 01:05:46;;;;;;;;;;;;;;;;;;350899;28;988;-81
2022/12/09 01:05:56;;;;;;;;;;;;;;;;;;351512;28;1016;-81
2022/12/09 01:06:10;;;;;;;;;;;;;;;;;;351551;28;1603;-81
2022/12/09 01:06:22;;;;;;;;;;;;;;;;;;351485;28;878;-81
2022/12/09 01:06:32;;;;;;;;;;;;;;;;;;351527;28;1054;-81
2022/12/09 01:06:43;;;;;;;;;;;;;;;;;;351525;28;837;-81
2022/12/09 01:06:53;;;;;;;;;;;;;;;;;;351537;28;933;-81
2022/12/09 01:07:03;;;;;;;;;;;;;;;;;;351461;28;1137;-81
2022/12/09 01:07:13;;;;;;;;;;;;;;;;;;351470;28;913;-82
2022/12/09 01:07:23;;;;;;;;;;;;;;;;;;350366;28;1590;-82
2022/12/09 01:07:36;;;;;;;;;;;;;;;;;;350692;28;1724;-81
2022/12/09 01:07:46;;;;;;;;;;;;;;;;;;351435;28;936;-81
2022/12/09 01:07:56;;;;;;;;;;;;;;;;;;351505;28;916;-81
2022/12/09 01:08:07;;;;;;;;;;;;;;;;;;351506;28;920;-81
2022/12/09 01:08:18;;;;;;;;;;;;;;;;;;351488;28;929;-82
2022/12/09 01:08:28;;;;;;;;;;;;;;;;;;351520;28;944;-82
2022/12/09 01:08:38;;;;;;;;;;;;;;;;;;351526;28;917;-82
2022/12/09 01:08:49;;;;;;;;;;;;;;;;;;349312;28;1431;-81
2022/12/09 01:08:59;;;;;;;;;;;;;;;;;;352936;28;924;-81
2022/12/09 01:09:09;;;;;;;;;;;;;;;;;;352905;28;916;-81
2022/12/09 01:09:19;;;;;;;;;;;;;;;;;;352887;28;1003;-81
2022/12/09 01:09:32;;;;;;;;;;;;;;;;;;352910;28;920;-82
2022/12/09 01:09:43;;;;;;;;;;;;;;;;;;352930;28;961;-81
2022/12/09 01:09:53;;;;;;;;;;;;;;;;;;352902;28;960;-81
2022/12/09 01:10:04;;;;;;;;;;;;;;;;;;352947;28;856;-81
2022/12/09 01:10:15;;;;;;;;;;;;;;;;;;352783;28;1044;-81
2022/12/09 01:10:25;;;;;;;;;;;;;;;;;;352932;28;995;-81
2022/12/09 01:10:37;;;;;;;;;;;;;;;;;;352926;28;932;-82
2022/12/09 01:10:47;;;;;;;;;;;;;;;;;;352929;28;929;-82
2022/12/09 01:10:57;;;;;;;;;;;;;;;;;;352854;28;948;-81
2022/12/09 01:11:12;;;;;;;;;;;;;;;;;;352931;28;855;-82
2022/12/09 01:11:24;;;;;;;;;;;;;;;;;;352781;28;995;-81
2022/12/09 01:11:34;;;;;;;;;;;;;;;;;;352917;28;916;-81
2022/12/09 01:11:44;;;;;;;;;;;;;;;;;;352939;28;892;-81
2022/12/09 01:11:55;;;;;;;;;;;;;;;;;;352706;28;961;-82
2022/12/09 01:12:05;;;;;;;;;;;;;;;;;;352742;28;821;-82
2022/12/09 01:12:15;;;;;;;;;;;;;;;;;;352642;28;1011;-81
2022/12/09 01:12:25;;;;;;;;;;;;;;;;;;352891;28;812;-82
2022/12/09 01:12:35;;;;;;;;;;;;;;;;;;352948;28;833;-82
2022/12/09 01:12:46;;;;;;;;;;;;;;;;;;352910;28;1004;-81
2022/12/09 01:12:56;;;;;;;;;;;;;;;;;;352866;28;904;-81
2022/12/09 01:13:06;;;;;;;;;;;;;;;;;;352951;28;908;-81
2022/12/09 01:13:17;;;;;;;;;;;;;;;;;;352867;28;964;-81
2022/12/09 01:13:27;;;;;;;;;;;;;;;;;;352807;28;849;-81
2022/12/09 01:13:37;;;;;;;;;;;;;;;;;;352927;28;920;-81
2022/12/09 01:13:48;;;;;;;;;;;;;;;;;;350862;28;1401;-82
2022/12/09 01:14:00;;;;;;;;;;;;;;;;;;351410;28;1222;-82
2022/12/09 01:14:10;;;;;;;;;;;;;;;;;;351488;28;999;-81
2022/12/09 01:14:20;;;;;;;;;;;;;;;;;;351493;28;979;-82
2022/12/09 01:14:30;;;;;;;;;;;;;;;;;;351567;28;782;-82
2022/12/09 01:14:41;;;;;;;;;;;;;;;;;;351555;28;968;-81
2022/12/09 01:14:51;;;;;;;;;;;;;;;;;;351493;28;983;-82
2022/12/09 01:15:01;;;;;;;;;;;;;;;;;;351514;28;908;-81
2022/12/09 01:15:12;;;;;;;;;;;;;;;;;;351520;28;928;-81
2022/12/09 01:15:22;;;;;;;;;;;;;;;;;;351494;28;983;-81
2022/12/09 01:15:32;;;;;;;;;;;;;;;;;;351438;28;928;-81